createdAt,value
2023-04-12T00:02:20.503Z,11.80
2023-04-12T00:05:09.757Z,11.80
2023-04-12T00:07:55.758Z,11.50
2023-04-12T00:10:43.429Z,11.60
2023-04-12T00:13:29.910Z,11.60
2023-04-12T00:16:16.109Z,11.60
2023-04-12T00:19:03.942Z,11.60
2023-04-12T00:21:49.645Z,11.50
2023-04-12T00:24:35.569Z,11.40
2023-04-12T00:27:22.784Z,11.50
2023-04-12T00:30:08.867Z,11.60
2023-04-12T00:32:54.630Z,11.70
2023-04-12T00:35:40.407Z,11.70
2023-04-12T00:38:26.665Z,11.60
2023-04-12T00:41:12.798Z,11.30
2023-04-12T00:43:59.960Z,11.40
2023-04-12T00:46:46.739Z,11.10
2023-04-12T00:49:33.689Z,11.30
2023-04-12T00:52:19.871Z,11.30
2023-04-12T00:55:09.943Z,11.10
2023-04-12T00:57:55.397Z,11.20
2023-04-12T01:00:42.491Z,11.10
2023-04-12T01:03:30.909Z,11.00
2023-04-12T01:06:34.271Z,11.10
2023-04-12T01:09:28.553Z,11.00
2023-04-12T01:12:26.780Z,10.70
2023-04-12T01:15:14.993Z,10.70
2023-04-12T01:18:05.928Z,10.80
2023-04-12T01:20:57.878Z,10.70
2023-04-12T01:24:01.713Z,10.80
2023-04-12T01:26:49.077Z,10.90
2023-04-12T01:29:36.285Z,10.80
2023-04-12T01:32:22.232Z,10.90
2023-04-12T01:35:09.063Z,11.00
2023-04-12T01:37:55.397Z,10.90
2023-04-12T01:40:42.789Z,10.90
2023-04-12T01:43:28.495Z,10.90
2023-04-12T01:46:18.893Z,11.00
2023-04-12T01:49:05.269Z,10.90
2023-04-12T01:51:55.735Z,10.70
2023-04-12T01:54:44.628Z,10.40
2023-04-12T01:57:30.859Z,10.20
2023-04-12T02:00:18.421Z,10.40
2023-04-12T02:03:07.006Z,10.40
2023-04-12T02:05:53.533Z,10.50
2023-04-12T02:08:39.801Z,10.50
2023-04-12T02:11:27.556Z,10.50
2023-04-12T02:14:12.997Z,10.50
2023-04-12T02:16:59.721Z,10.50
2023-04-12T02:19:47.641Z,10.60
2023-04-12T02:22:37.260Z,10.20
2023-04-12T02:25:23.311Z,10.00
2023-04-12T02:28:09.020Z,10.10
2023-04-12T02:30:55.430Z,10.30
2023-04-12T02:33:42.653Z,10.50
2023-04-12T02:36:31.003Z,10.40
2023-04-12T02:39:22.352Z,10.40
2023-04-12T02:42:10.899Z,10.40
2023-04-12T02:44:58.589Z,10.50
2023-04-12T02:47:44.207Z,10.10
2023-04-12T02:50:30.694Z,10.10
2023-04-12T02:53:26.352Z,10.00
2023-04-12T02:56:35.695Z,10.20
2023-04-12T02:59:29.122Z,10.10
2023-04-12T03:02:28.178Z,10.10
2023-04-12T03:05:18.991Z,10.40
2023-04-12T03:08:05.275Z,10.30
2023-04-12T03:10:59.399Z,10.40
2023-04-12T03:13:46.652Z,10.50
2023-04-12T03:16:35.596Z,10.50
2023-04-12T03:19:29.197Z,10.20
2023-04-12T03:22:15.061Z,10.20
2023-04-12T03:25:05.530Z,10.30
2023-04-12T03:27:53.141Z,10.20
2023-04-12T03:30:42.437Z,9.90
2023-04-12T03:33:29.040Z,10.00
2023-04-12T03:36:24.074Z,10.10
2023-04-12T03:39:33.982Z,10.40
2023-04-12T03:42:32.468Z,9.90
2023-04-12T03:45:25.535Z,9.80
2023-04-12T03:48:14.440Z,10.00
2023-04-12T03:51:08.630Z,9.80
2023-04-12T03:53:58.318Z,10.10
2023-04-12T03:56:45.968Z,10.30
2023-04-12T03:59:39.363Z,10.50
2023-04-12T04:02:27.462Z,10.20
2023-04-12T04:05:16.564Z,10.10
2023-04-12T04:08:06.775Z,10.10
2023-04-12T04:11:00.956Z,10.30
2023-04-12T04:13:52.807Z,10.40
2023-04-12T04:16:39.520Z,10.20
2023-04-12T04:19:28.958Z,10.30
2023-04-12T04:22:15.800Z,10.10
2023-04-12T04:25:02.439Z,10.00
2023-04-12T04:27:52.094Z,10.30
2023-04-12T04:30:39.188Z,10.10
2023-04-12T04:33:27.869Z,10.30
2023-04-12T04:36:18.273Z,10.30
2023-04-12T04:39:09.904Z,10.20
2023-04-12T04:42:00.069Z,10.20
2023-04-12T04:45:04.041Z,10.30
2023-04-12T04:47:56.645Z,10.30
2023-04-12T04:50:42.733Z,10.30
2023-04-12T04:53:30.147Z,10.60
2023-04-12T04:56:17.463Z,10.70
2023-04-12T04:59:06.695Z,10.70
2023-04-12T05:01:53.229Z,10.80
2023-04-12T05:04:39.360Z,10.70
2023-04-12T05:07:27.395Z,10.70
2023-04-12T05:10:14.679Z,10.50
2023-04-12T05:13:01.744Z,10.50
2023-04-12T05:15:48.294Z,10.60
2023-04-12T05:18:33.900Z,10.70
2023-04-12T05:21:19.574Z,10.40
2023-04-12T05:24:05.851Z,10.30
2023-04-12T05:26:54.372Z,10.40
2023-04-12T05:29:40.204Z,10.60
2023-04-12T05:32:27.116Z,10.50
2023-04-12T05:35:13.187Z,10.70
2023-04-12T05:38:01.162Z,10.60
2023-04-12T05:40:50.292Z,10.80
2023-04-12T05:43:42.333Z,11.00
2023-04-12T05:46:28.830Z,11.20
2023-04-12T05:49:15.119Z,11.20
2023-04-12T05:52:01.018Z,11.20
2023-04-12T05:54:47.320Z,11.20
2023-04-12T05:57:36.462Z,11.20
2023-04-12T06:00:24.185Z,11.20
2023-04-12T06:03:11.694Z,11.10
2023-04-12T06:05:58.644Z,11.10
2023-04-12T06:08:44.308Z,11.30
2023-04-12T06:11:30.149Z,11.40
2023-04-12T06:14:16.013Z,11.30
2023-04-12T06:17:05.662Z,11.50
2023-04-12T06:19:52.997Z,11.70
2023-04-12T06:22:38.798Z,11.50
2023-04-12T06:25:26.046Z,11.50
2023-04-12T06:28:13.497Z,11.80
2023-04-12T06:31:03.289Z,11.90
2023-04-12T06:33:55.987Z,12.00
2023-04-12T06:36:43.787Z,11.80
2023-04-12T06:39:29.669Z,11.80
2023-04-12T06:42:16.158Z,11.80
2023-04-12T06:45:03.036Z,12.00
2023-04-12T06:47:48.882Z,11.90
2023-04-12T06:50:36.416Z,11.90
2023-04-12T06:53:22.166Z,12.10
2023-04-12T06:56:08.562Z,12.20
2023-04-12T06:58:54.263Z,12.30
2023-04-12T07:01:41.305Z,12.30
2023-04-12T07:04:27.738Z,12.30
2023-04-12T07:07:15.054Z,12.30
2023-04-12T07:10:00.814Z,12.60
2023-04-12T07:12:46.791Z,12.70
2023-04-12T07:15:33.083Z,12.90
2023-04-12T07:18:19.121Z,13.00
2023-04-12T07:21:05.483Z,13.30
2023-04-12T07:23:53.116Z,13.30
2023-04-12T07:26:38.934Z,13.70
2023-04-12T07:29:24.602Z,13.70
2023-04-12T07:32:11.140Z,13.90
2023-04-12T07:34:56.543Z,14.10
2023-04-12T07:37:44.944Z,14.00
2023-04-12T07:40:32.221Z,14.10
2023-04-12T07:43:18.123Z,14.00
2023-04-12T07:46:08.756Z,14.20
2023-04-12T07:48:54.761Z,14.60
2023-04-12T07:51:40.296Z,14.60
2023-04-12T07:54:27.832Z,14.50
2023-04-12T07:57:15.099Z,14.50
2023-04-12T08:00:00.646Z,14.70
2023-04-12T08:02:46.356Z,14.60
2023-04-12T08:05:32.679Z,14.70
2023-04-12T08:08:18.312Z,14.80
2023-04-12T08:11:06.323Z,14.70
2023-04-12T08:13:53.722Z,14.80
2023-04-12T08:16:39.841Z,15.00
2023-04-12T08:19:25.580Z,15.10
2023-04-12T08:22:13.533Z,15.10
2023-04-12T08:24:59.302Z,15.40
2023-04-12T08:27:46.030Z,15.40
2023-04-12T08:30:36.744Z,15.30
2023-04-12T08:33:22.760Z,15.30
2023-04-12T08:36:09.628Z,15.50
2023-04-12T08:38:58.817Z,15.40
2023-04-12T08:41:44.813Z,15.70
2023-04-12T08:44:36.621Z,15.80
2023-04-12T08:47:24.021Z,16.50
2023-04-12T08:50:13.952Z,17.30
2023-04-12T08:52:59.997Z,18.10
2023-04-12T08:55:46.132Z,19.10
2023-04-12T08:58:32.021Z,19.30
2023-04-12T09:01:20.229Z,19.70
2023-04-12T09:04:08.489Z,19.90
2023-04-12T09:06:54.599Z,19.80
2023-04-12T09:09:44.543Z,19.80
2023-04-12T09:12:30.818Z,20.00
2023-04-12T09:15:17.792Z,20.40
2023-04-12T09:18:06.877Z,20.70
2023-04-12T09:21:07.109Z,20.60
2023-04-12T09:24:03.871Z,20.20
2023-04-12T09:26:49.546Z,19.70
2023-04-12T09:29:35.382Z,19.80
2023-04-12T09:32:28.723Z,19.70
2023-04-12T09:35:14.641Z,19.90
2023-04-12T09:38:07.675Z,19.60
2023-04-12T09:40:54.742Z,19.80
2023-04-12T09:43:40.513Z,19.70
2023-04-12T09:46:26.273Z,20.00
2023-04-12T09:49:12.742Z,20.30
2023-04-12T09:51:59.601Z,21.10
2023-04-12T09:54:51.044Z,21.80
2023-04-12T09:57:40.498Z,22.60
2023-04-12T10:00:27.436Z,22.80
2023-04-12T10:03:13.357Z,22.00
2023-04-12T10:05:59.793Z,21.20
2023-04-12T10:08:46.597Z,20.20
2023-04-12T10:11:34.485Z,19.50
2023-04-12T10:14:22.568Z,18.70
2023-04-12T10:17:11.115Z,18.10
2023-04-12T10:19:58.776Z,17.70
2023-04-12T10:22:47.119Z,17.40
2023-04-12T10:25:33.179Z,17.20
2023-04-12T10:28:24.005Z,17.50
2023-04-12T10:31:28.511Z,18.10
2023-04-12T10:34:14.578Z,17.90
2023-04-12T10:37:01.744Z,18.00
2023-04-12T10:39:53.145Z,18.00
2023-04-12T10:42:38.841Z,18.30
2023-04-12T10:45:37.897Z,18.70
2023-04-12T10:48:33.962Z,19.80
2023-04-12T10:51:28.785Z,21.60
2023-04-12T10:54:35.898Z,22.00
2023-04-12T10:57:42.524Z,21.60
2023-04-12T11:01:06.461Z,21.20
2023-04-12T11:04:15.230Z,21.30
2023-04-12T11:07:10.176Z,21.20
2023-04-12T11:10:19.347Z,21.30
2023-04-12T11:13:09.086Z,20.90
2023-04-12T11:15:56.582Z,20.40
2023-04-12T11:18:42.328Z,19.90
2023-04-12T11:21:29.739Z,19.60
2023-04-12T11:24:16.422Z,19.20
2023-04-12T11:27:03.174Z,19.10
2023-04-12T11:29:50.771Z,18.70
2023-04-12T11:32:36.411Z,18.80
2023-04-12T11:35:27.420Z,17.80
2023-04-12T11:38:15.301Z,17.00
2023-04-12T11:41:01.615Z,16.40
2023-04-12T11:43:48.575Z,15.80
2023-04-12T11:46:35.527Z,15.80
2023-04-12T11:49:23.094Z,16.40
2023-04-12T11:52:09.045Z,16.70
2023-04-12T11:54:58.775Z,17.50
2023-04-12T11:57:53.210Z,18.20
2023-04-12T12:00:41.863Z,18.70
2023-04-12T12:03:27.901Z,19.10
2023-04-12T12:06:15.561Z,19.50
2023-04-12T12:09:04.317Z,19.40
2023-04-12T12:11:52.152Z,19.70
2023-04-12T12:14:37.896Z,19.70
2023-04-12T12:17:24.110Z,19.50
2023-04-12T12:20:20.842Z,19.20
2023-04-12T12:23:06.524Z,19.40
2023-04-12T12:25:57.899Z,19.30
2023-04-12T12:28:54.981Z,20.60
2023-04-12T12:31:46.837Z,22.10
2023-04-12T12:34:34.420Z,22.30
2023-04-12T12:37:28.108Z,21.30
2023-04-12T12:40:14.323Z,20.10
2023-04-12T12:43:00.339Z,19.70
2023-04-12T12:45:47.790Z,19.50
2023-04-12T12:48:33.814Z,19.90
2023-04-12T12:51:20.621Z,20.00
2023-04-12T12:54:06.411Z,19.50
2023-04-12T12:56:52.158Z,19.00
2023-04-12T12:59:37.862Z,18.90
2023-04-12T13:02:25.096Z,18.70
2023-04-12T13:05:12.090Z,18.50
2023-04-12T13:07:58.034Z,18.10
2023-04-12T13:10:43.835Z,18.30
2023-04-12T13:13:29.424Z,18.60
2023-04-12T13:16:15.735Z,18.40
2023-04-12T13:19:02.811Z,19.20
2023-04-12T13:21:49.902Z,19.30
2023-04-12T13:24:37.156Z,18.80
2023-04-12T13:27:22.809Z,18.20
2023-04-12T13:30:09.395Z,17.60
2023-04-12T13:32:55.366Z,17.80
2023-04-12T13:35:42.669Z,17.80
2023-04-12T13:38:28.346Z,17.40
2023-04-12T13:41:14.077Z,17.40
2023-04-12T13:43:59.730Z,17.50
2023-04-12T13:46:45.875Z,17.70
2023-04-12T13:49:31.941Z,17.40
2023-04-12T13:52:19.947Z,17.10
2023-04-12T13:55:08.604Z,16.90
2023-04-12T13:57:54.648Z,17.00
2023-04-12T14:00:41.246Z,17.10
2023-04-12T14:03:26.978Z,17.20
2023-04-12T14:06:12.934Z,17.20
2023-04-12T14:09:00.592Z,17.00
2023-04-12T14:11:47.265Z,16.80
2023-04-12T14:14:32.792Z,16.50
2023-04-12T14:17:18.451Z,16.10
2023-04-12T14:20:08.340Z,16.00
2023-04-12T14:22:54.379Z,15.70
2023-04-12T14:25:41.687Z,16.00
2023-04-12T14:28:30.944Z,16.30
2023-04-12T14:31:17.547Z,16.50
2023-04-12T14:34:03.429Z,16.30
2023-04-12T14:36:49.020Z,16.20
2023-04-12T14:39:35.792Z,15.90
2023-04-12T14:42:23.275Z,15.70
2023-04-12T14:45:10.370Z,15.70
2023-04-12T14:47:56.447Z,15.60
2023-04-12T14:50:42.506Z,15.10
2023-04-12T14:53:28.262Z,15.30
2023-04-12T14:56:22.313Z,14.80
2023-04-12T14:59:11.895Z,14.50
2023-04-12T15:01:59.484Z,14.70
2023-04-12T15:04:48.413Z,14.60
2023-04-12T15:07:34.231Z,14.40
2023-04-12T15:10:20.780Z,14.20
2023-04-12T15:13:06.810Z,14.20
2023-04-12T15:15:54.994Z,14.30
2023-04-12T15:18:42.115Z,13.90
2023-04-12T15:21:28.836Z,14.20
2023-04-12T15:24:15.025Z,14.70
2023-04-12T15:27:03.692Z,14.70
2023-04-12T15:29:51.100Z,14.60
2023-04-12T15:32:41.355Z,14.20
2023-04-12T15:35:28.286Z,14.00
2023-04-12T15:38:17.024Z,13.80
2023-04-12T15:41:05.244Z,14.20
2023-04-12T15:43:50.825Z,13.80
2023-04-12T15:46:36.459Z,14.00
2023-04-12T15:49:25.602Z,14.10
2023-04-12T15:52:11.543Z,14.30
2023-04-12T15:54:57.484Z,14.30
2023-04-12T15:57:43.401Z,14.30
2023-04-12T16:00:30.946Z,14.30
2023-04-12T16:03:19.611Z,14.40
2023-04-12T16:06:08.035Z,14.80
2023-04-12T16:08:54.820Z,14.60
2023-04-12T16:11:41.096Z,14.70
2023-04-12T16:14:27.456Z,14.80
2023-04-12T16:17:13.394Z,15.20
2023-04-12T16:19:59.294Z,15.20
2023-04-12T16:22:48.521Z,14.90
2023-04-12T16:25:35.974Z,14.60
2023-04-12T16:28:22.931Z,14.80
2023-04-12T16:31:09.459Z,14.90
2023-04-12T16:33:55.677Z,14.70
2023-04-12T16:36:43.119Z,15.00
2023-04-12T16:39:32.266Z,15.00
2023-04-12T16:42:21.239Z,15.00
2023-04-12T16:45:08.887Z,14.80
2023-04-12T16:47:54.963Z,14.20
2023-04-12T16:50:44.678Z,13.70
2023-04-12T16:53:30.633Z,13.90
2023-04-12T16:56:20.208Z,13.50
2023-04-12T16:59:06.594Z,13.60
2023-04-12T17:01:52.351Z,13.40
2023-04-12T17:04:38.258Z,13.40
2023-04-12T17:07:24.124Z,13.30
2023-04-12T17:10:10.411Z,13.20
2023-04-12T17:13:04.376Z,13.20
2023-04-12T17:15:50.401Z,13.20
2023-04-12T17:22:33.957Z,13.40
2023-04-12T17:25:22.412Z,13.30
2023-04-12T17:28:13.145Z,13.20
2023-04-12T17:31:02.121Z,13.40
2023-04-12T17:33:47.723Z,13.40
2023-04-12T17:36:34.158Z,13.60
2023-04-12T17:39:20.217Z,13.90
2023-04-12T17:42:06.105Z,13.90
2023-04-12T17:44:53.379Z,13.40
2023-04-12T17:47:40.176Z,13.00
2023-04-12T17:50:26.336Z,12.80
2023-04-12T17:53:13.129Z,12.80
2023-04-12T17:55:59.138Z,12.70
2023-04-12T17:58:44.781Z,12.90
2023-04-12T18:01:33.722Z,12.70
2023-04-12T18:04:22.026Z,12.40
2023-04-12T18:07:09.624Z,12.30
2023-04-12T18:09:55.271Z,12.00
2023-04-12T18:12:41.031Z,11.70
2023-04-12T18:15:27.644Z,11.40
2023-04-12T18:18:15.067Z,11.40
2023-04-12T18:21:03.515Z,11.20
2023-04-12T18:23:49.740Z,11.20
2023-04-12T18:26:36.073Z,10.90
2023-04-12T18:29:21.948Z,10.90
2023-04-12T18:32:07.793Z,10.70
2023-04-12T18:34:54.982Z,10.60
2023-04-12T18:37:42.500Z,10.80
2023-04-12T18:40:28.753Z,10.80
2023-04-12T18:43:14.550Z,10.80
2023-04-12T18:46:00.488Z,10.80
2023-04-12T18:48:47.953Z,10.70
2023-04-12T18:51:36.321Z,10.50
2023-04-12T18:54:22.448Z,10.50
2023-04-12T18:57:08.482Z,10.50
2023-04-12T18:59:54.571Z,10.60
2023-04-12T19:02:42.505Z,10.40
2023-04-12T19:05:28.872Z,10.10
2023-04-12T19:08:16.345Z,10.10
2023-04-12T19:11:02.093Z,9.80
2023-04-12T19:13:49.055Z,9.80
2023-04-12T19:16:36.229Z,9.80
2023-04-12T19:19:22.564Z,9.60
2023-04-12T19:22:08.498Z,9.80
2023-04-12T19:24:58.748Z,9.60
2023-04-12T19:27:44.646Z,9.60
2023-04-12T19:30:37.475Z,9.80
2023-04-12T19:33:24.748Z,9.90
2023-04-12T19:36:10.845Z,9.80
2023-04-12T19:38:56.696Z,10.00
2023-04-12T19:41:44.276Z,9.70
2023-04-12T19:44:30.216Z,9.70
2023-04-12T19:47:15.954Z,9.60
2023-04-12T19:50:01.779Z,9.40
2023-04-12T19:52:48.666Z,9.50
2023-04-12T19:55:35.226Z,9.30
2023-04-12T19:58:23.400Z,9.50
2023-04-12T20:01:09.923Z,9.60
2023-04-12T20:03:55.768Z,9.60
2023-04-12T20:06:41.956Z,9.60
2023-04-12T20:09:27.628Z,9.60
2023-04-12T20:12:13.692Z,9.30
2023-04-12T20:15:01.943Z,9.40
2023-04-12T20:17:48.603Z,9.50
2023-04-12T20:20:34.723Z,9.40
2023-04-12T20:23:20.467Z,9.50
2023-04-12T20:26:05.990Z,9.40
2023-04-12T20:28:52.108Z,9.50
2023-04-12T20:31:39.443Z,9.60
2023-04-12T20:34:26.796Z,9.70
2023-04-12T20:37:13.282Z,9.90
2023-04-12T20:39:59.516Z,9.60
2023-04-12T20:42:45.327Z,9.70
2023-04-12T20:45:31.506Z,9.80
2023-04-12T20:48:19.621Z,9.80
2023-04-12T20:51:05.703Z,9.90
2023-04-12T20:53:51.756Z,9.60
2023-04-12T20:56:56.059Z,9.50
2023-04-12T20:59:41.735Z,9.40
2023-04-12T21:02:27.651Z,9.40
2023-04-12T21:05:17.144Z,9.30
2023-04-12T21:08:07.773Z,9.30
2023-04-12T21:10:59.803Z,9.20
2023-04-12T21:13:48.238Z,9.30
2023-04-12T21:16:38.718Z,9.40
2023-04-12T21:19:24.919Z,9.30
2023-04-12T21:22:17.539Z,9.40
2023-04-12T21:25:07.598Z,9.20
2023-04-12T21:27:53.161Z,9.40
2023-04-12T21:30:39.155Z,9.20
2023-04-12T21:33:25.252Z,9.40
2023-04-12T21:36:13.049Z,9.40
2023-04-12T21:39:00.595Z,9.30
2023-04-12T21:41:46.625Z,9.40
2023-04-12T21:44:32.322Z,9.30
2023-04-12T21:47:19.453Z,9.40
2023-04-12T21:50:07.959Z,9.30
2023-04-12T21:52:54.826Z,9.50
2023-04-12T21:55:42.005Z,9.60
2023-04-12T21:58:30.179Z,9.50
2023-04-12T22:01:16.470Z,9.40
2023-04-12T22:04:02.240Z,9.80
2023-04-12T22:06:50.747Z,10.00
2023-04-12T22:09:36.463Z,9.70
2023-04-12T22:12:25.519Z,9.40
2023-04-12T22:15:12.051Z,9.60
2023-04-12T22:17:59.043Z,9.90
2023-04-12T22:20:44.816Z,10.20
2023-04-12T22:23:30.623Z,10.20
2023-04-12T22:26:16.477Z,9.90
2023-04-12T22:29:04.849Z,9.60
2023-04-12T22:31:51.173Z,9.80
2023-04-12T22:34:39.341Z,9.60
2023-04-12T22:37:25.823Z,9.50
2023-04-12T22:40:13.451Z,9.10
2023-04-12T22:42:59.538Z,9.00
2023-04-12T22:45:46.819Z,9.00
2023-04-12T22:48:32.373Z,8.90
2023-04-12T22:51:17.977Z,8.80
2023-04-12T22:54:06.161Z,8.70
2023-04-12T22:56:51.713Z,8.80
2023-04-12T22:59:37.570Z,8.80
2023-04-12T23:02:24.735Z,9.00
2023-04-12T23:05:10.732Z,9.30
2023-04-12T23:07:56.230Z,9.10
2023-04-12T23:10:45.431Z,9.30
2023-04-12T23:13:35.060Z,9.40
2023-04-12T23:16:20.807Z,9.30
2023-04-12T23:19:07.991Z,9.10
2023-04-12T23:21:54.506Z,9.00
2023-04-12T23:24:40.383Z,8.80
2023-04-12T23:27:25.974Z,8.70
2023-04-12T23:30:12.990Z,8.70
2023-04-12T23:32:59.724Z,9.00
2023-04-12T23:35:49.581Z,9.10
2023-04-12T23:38:36.121Z,9.10
2023-04-12T23:41:22.232Z,9.00
2023-04-12T23:44:07.982Z,8.90
2023-04-12T23:46:53.564Z,9.00
2023-04-12T23:49:39.083Z,9.10
2023-04-12T23:52:27.148Z,9.10
2023-04-12T23:55:13.349Z,9.00
2023-04-12T23:57:59.230Z,9.10
